sensor_id;sensor_type;location;lat;lon;timestamp;pressure;altitude;pressure_sealevel;temperature;humidity
46722;BME280;32455;43.430;23.136;2023-02-14T00:02:11;99629.53;;;-1.85;100.00
46722;BME280;32455;43.430;23.136;2023-02-14T00:04:56;99645.78;;;-1.91;100.00
46722;BME280;32455;43.430;23.136;2023-02-14T00:07:42;99654.53;;;-2.04;100.00
46722;BME280;32455;43.430;23.136;2023-02-14T00:10:27;99662.84;;;-1.84;100.00
46722;BME280;32455;43.430;23.136;2023-02-14T00:13:13;99659.06;;;-1.93;100.00
46722;BME280;32455;43.430;23.136;2023-02-14T00:15:58;99654.09;;;-1.97;100.00
46722;BME280;32455;43.430;23.136;2023-02-14T00:18:43;99651.56;;;-1.86;100.00
46722;BME280;32455;43.430;23.136;2023-02-14T00:21:48;99652.75;;;-1.90;100.00
46722;BME280;32455;43.430;23.136;2023-02-14T00:24:34;99625.25;;;-2.12;100.00
46722;BME280;32455;43.430;23.136;2023-02-14T00:27:19;99632.94;;;-1.96;100.00
46722;BME280;32455;43.430;23.136;2023-02-14T00:30:06;99632.22;;;-2.11;100.00
46722;BME280;32455;43.430;23.136;2023-02-14T00:32:52;99616.41;;;-2.23;100.00
46722;BME280;32455;43.430;23.136;2023-02-14T00:35:38;99618.72;;;-2.06;100.00
46722;BME280;32455;43.430;23.136;2023-02-14T00:38:23;99618.97;;;-1.72;100.00
46722;BME280;32455;43.430;23.136;2023-02-14T00:41:09;99625.34;;;-0.79;95.98
46722;BME280;32455;43.430;23.136;2023-02-14T00:43:54;99627.25;;;-0.35;94.01
46722;BME280;32455;43.430;23.136;2023-02-14T00:46:40;99629.44;;;-0.29;92.96
46722;BME280;32455;43.430;23.136;2023-02-14T00:49:25;99624.91;;;0.07;87.98
46722;BME280;32455;43.430;23.136;2023-02-14T00:52:11;99638.19;;;0.50;85.92
46722;BME280;32455;43.430;23.136;2023-02-14T00:54:57;99636.19;;;0.43;85.53
46722;BME280;32455;43.430;23.136;2023-02-14T00:57:42;99643.00;;;0.45;85.08
46722;BME280;32455;43.430;23.136;2023-02-14T01:00:28;99641.59;;;0.30;86.69
46722;BME280;32455;43.430;23.136;2023-02-14T01:03:13;99650.13;;;0.11;87.39
46722;BME280;32455;43.430;23.136;2023-02-14T01:05:59;99647.72;;;0.31;86.18
46722;BME280;32455;43.430;23.136;2023-02-14T01:08:44;99645.22;;;0.18;87.84
46722;BME280;32455;43.430;23.136;2023-02-14T01:11:29;99629.59;;;-0.08;89.95
46722;BME280;32455;43.430;23.136;2023-02-14T01:14:13;99635.19;;;-0.35;91.58
46722;BME280;32455;43.430;23.136;2023-02-14T01:16:59;99628.22;;;-0.47;93.84
46722;BME280;32455;43.430;23.136;2023-02-14T01:19:44;99631.31;;;-0.88;96.33
46722;BME280;32455;43.430;23.136;2023-02-14T01:22:34;99608.03;;;-1.18;97.66
46722;BME280;32455;43.430;23.136;2023-02-14T01:25:21;99619.72;;;-1.10;98.84
46722;BME280;32455;43.430;23.136;2023-02-14T01:28:06;99600.63;;;-1.13;99.51
46722;BME280;32455;43.430;23.136;2023-02-14T01:30:51;99603.66;;;-1.31;100.00
46722;BME280;32455;43.430;23.136;2023-02-14T01:33:37;99594.63;;;-1.39;100.00
46722;BME280;32455;43.430;23.136;2023-02-14T01:36:28;99586.72;;;-1.39;100.00
46722;BME280;32455;43.430;23.136;2023-02-14T01:39:14;99595.84;;;-1.56;100.00
46722;BME280;32455;43.430;23.136;2023-02-14T01:42:00;99579.81;;;-1.53;100.00
46722;BME280;32455;43.430;23.136;2023-02-14T01:47:35;99597.97;;;-1.61;100.00
46722;BME280;32455;43.430;23.136;2023-02-14T01:50:31;99584.84;;;-1.50;100.00
46722;BME280;32455;43.430;23.136;2023-02-14T01:53:25;99558.88;;;-1.67;100.00
46722;BME280;32455;43.430;23.136;2023-02-14T01:56:19;99562.09;;;-1.75;100.00
46722;BME280;32455;43.430;23.136;2023-02-14T01:59:08;99562.84;;;-1.86;100.00
46722;BME280;32455;43.430;23.136;2023-02-14T02:01:55;99556.81;;;-1.75;100.00
46722;BME280;32455;43.430;23.136;2023-02-14T02:04:44;99555.47;;;-1.57;98.94
46722;BME280;32455;43.430;23.136;2023-02-14T02:07:31;99580.34;;;-1.48;98.62
46722;BME280;32455;43.430;23.136;2023-02-14T02:10:17;99570.16;;;-1.41;98.33
46722;BME280;32455;43.430;23.136;2023-02-14T02:13:05;99554.97;;;-1.62;98.67
46722;BME280;32455;43.430;23.136;2023-02-14T02:38:23;99549.94;;;-2.14;100.00
46722;BME280;32455;43.430;23.136;2023-02-14T02:41:42;99542.94;;;-2.27;100.00
46722;BME280;32455;43.430;23.136;2023-02-14T02:50:36;99533.53;;;-2.18;100.00
46722;BME280;32455;43.430;23.136;2023-02-14T02:53:57;99522.38;;;-2.21;100.00
46722;BME280;32455;43.430;23.136;2023-02-14T02:56:50;99519.75;;;-2.21;100.00
46722;BME280;32455;43.430;23.136;2023-02-14T02:59:41;99522.91;;;-2.16;100.00
46722;BME280;32455;43.430;23.136;2023-02-14T03:02:38;99515.13;;;-2.18;100.00
46722;BME280;32455;43.430;23.136;2023-02-14T03:05:46;99495.31;;;-2.23;100.00
46722;BME280;32455;43.430;23.136;2023-02-14T03:08:31;99506.16;;;-2.28;100.00
46722;BME280;32455;43.430;23.136;2023-02-14T03:11:17;99505.31;;;-2.16;100.00
46722;BME280;32455;43.430;23.136;2023-02-14T03:26:17;99486.13;;;-1.81;97.79
46722;BME280;32455;43.430;23.136;2023-02-14T03:29:08;99479.94;;;-1.45;95.39
46722;BME280;32455;43.430;23.136;2023-02-14T03:35:17;99480.31;;;-1.38;95.74
46722;BME280;32455;43.430;23.136;2023-02-14T03:38:09;99479.69;;;-1.07;93.01
46722;BME280;32455;43.430;23.136;2023-02-14T03:41:00;99479.38;;;-0.68;89.51
46722;BME280;32455;43.430;23.136;2023-02-14T03:44:00;99481.28;;;-0.48;87.15
46722;BME280;32455;43.430;23.136;2023-02-14T03:46:50;99472.16;;;-0.44;86.51
46722;BME280;32455;43.430;23.136;2023-02-14T03:49:39;99469.66;;;-0.57;87.65
46722;BME280;32455;43.430;23.136;2023-02-14T03:52:25;99488.72;;;-0.64;88.53
46722;BME280;32455;43.430;23.136;2023-02-14T03:55:13;99485.75;;;-0.71;87.96
46722;BME280;32455;43.430;23.136;2023-02-14T03:58:02;99477.06;;;-0.95;90.91
46722;BME280;32455;43.430;23.136;2023-02-14T04:00:53;99479.97;;;-0.98;90.67
46722;BME280;32455;43.430;23.136;2023-02-14T04:03:43;99471.44;;;-0.91;90.96
46722;BME280;32455;43.430;23.136;2023-02-14T04:06:29;99469.19;;;-1.31;94.85
46722;BME280;32455;43.430;23.136;2023-02-14T04:09:14;99464.69;;;-1.53;97.24
46722;BME280;32455;43.430;23.136;2023-02-14T04:11:59;99457.53;;;-1.74;98.04
46722;BME280;32455;43.430;23.136;2023-02-14T04:14:45;99455.47;;;-1.82;98.31
46722;BME280;32455;43.430;23.136;2023-02-14T04:17:30;99448.09;;;-1.90;100.00
46722;BME280;32455;43.430;23.136;2023-02-14T04:20:34;99460.38;;;-2.02;100.00
46722;BME280;32455;43.430;23.136;2023-02-14T04:23:20;99454.03;;;-2.23;100.00
46722;BME280;32455;43.430;23.136;2023-02-14T04:26:06;99441.44;;;-2.31;100.00
46722;BME280;32455;43.430;23.136;2023-02-14T04:28:51;99442.13;;;-2.53;100.00
46722;BME280;32455;43.430;23.136;2023-02-14T04:31:36;99437.16;;;-2.57;100.00
46722;BME280;32455;43.430;23.136;2023-02-14T04:34:23;99452.03;;;-2.56;100.00
46722;BME280;32455;43.430;23.136;2023-02-14T04:37:08;99433.84;;;-2.72;100.00
46722;BME280;32455;43.430;23.136;2023-02-14T04:39:53;99432.56;;;-2.92;100.00
46722;BME280;32455;43.430;23.136;2023-02-14T04:42:38;99433.41;;;-2.79;100.00
46722;BME280;32455;43.430;23.136;2023-02-14T04:45:23;99446.53;;;-2.66;100.00
46722;BME280;32455;43.430;23.136;2023-02-14T04:48:09;99439.41;;;-2.64;100.00
46722;BME280;32455;43.430;23.136;2023-02-14T04:50:55;99442.69;;;-2.73;100.00
46722;BME280;32455;43.430;23.136;2023-02-14T04:53:40;99439.22;;;-2.73;100.00
46722;BME280;32455;43.430;23.136;2023-02-14T04:56:27;99438.78;;;-2.93;100.00
46722;BME280;32455;43.430;23.136;2023-02-14T04:59:12;99440.47;;;-2.92;100.00
46722;BME280;32455;43.430;23.136;2023-02-14T05:01:57;99436.78;;;-2.89;100.00
46722;BME280;32455;43.430;23.136;2023-02-14T05:04:43;99438.59;;;-2.90;100.00
46722;BME280;32455;43.430;23.136;2023-02-14T05:07:27;99438.59;;;-2.77;100.00
46722;BME280;32455;43.430;23.136;2023-02-14T05:10:13;99439.72;;;-2.68;100.00
46722;BME280;32455;43.430;23.136;2023-02-14T05:12:59;99431.03;;;-3.07;100.00
46722;BME280;32455;43.430;23.136;2023-02-14T05:15:45;99430.78;;;-3.04;100.00
46722;BME280;32455;43.430;23.136;2023-02-14T05:18:31;99433.00;;;-2.85;100.00
46722;BME280;32455;43.430;23.136;2023-02-14T05:21:16;99435.44;;;-2.95;100.00
46722;BME280;32455;43.430;23.136;2023-02-14T05:24:01;99440.69;;;-3.08;100.00
46722;BME280;32455;43.430;23.136;2023-02-14T05:26:47;99440.38;;;-3.03;100.00
46722;BME280;32455;43.430;23.136;2023-02-14T05:29:33;99439.88;;;-2.95;100.00
46722;BME280;32455;43.430;23.136;2023-02-14T05:32:18;99441.94;;;-3.13;100.00
46722;BME280;32455;43.430;23.136;2023-02-14T05:35:04;99446.88;;;-3.09;100.00
46722;BME280;32455;43.430;23.136;2023-02-14T05:37:49;99442.78;;;-3.00;100.00
46722;BME280;32455;43.430;23.136;2023-02-14T05:40:34;99454.06;;;-2.98;100.00
46722;BME280;32455;43.430;23.136;2023-02-14T05:43:20;99457.41;;;-2.96;100.00
46722;BME280;32455;43.430;23.136;2023-02-14T05:46:05;99458.66;;;-2.89;100.00
46722;BME280;32455;43.430;23.136;2023-02-14T05:48:50;99458.78;;;-2.90;100.00
46722;BME280;32455;43.430;23.136;2023-02-14T05:51:35;99461.50;;;-3.05;100.00
46722;BME280;32455;43.430;23.136;2023-02-14T05:54:20;99461.50;;;-3.17;100.00
46722;BME280;32455;43.430;23.136;2023-02-14T05:57:05;99456.81;;;-2.99;100.00
46722;BME280;32455;43.430;23.136;2023-02-14T05:59:51;99462.06;;;-2.87;100.00
46722;BME280;32455;43.430;23.136;2023-02-14T06:02:36;99447.72;;;-2.83;100.00
46722;BME280;32455;43.430;23.136;2023-02-14T06:05:21;99450.28;;;-2.94;100.00
46722;BME280;32455;43.430;23.136;2023-02-14T06:08:06;99450.97;;;-2.79;100.00
46722;BME280;32455;43.430;23.136;2023-02-14T06:10:51;99438.56;;;-2.64;100.00
46722;BME280;32455;43.430;23.136;2023-02-14T06:13:36;99440.66;;;-2.57;100.00
46722;BME280;32455;43.430;23.136;2023-02-14T06:16:21;99451.50;;;-2.61;100.00
46722;BME280;32455;43.430;23.136;2023-02-14T06:19:06;99455.56;;;-2.57;100.00
46722;BME280;32455;43.430;23.136;2023-02-14T06:21:50;99453.25;;;-2.49;100.00
46722;BME280;32455;43.430;23.136;2023-02-14T06:24:35;99451.88;;;-2.42;100.00
46722;BME280;32455;43.430;23.136;2023-02-14T06:27:20;99446.63;;;-2.05;100.00
46722;BME280;32455;43.430;23.136;2023-02-14T06:30:05;99459.91;;;-1.71;100.00
46722;BME280;32455;43.430;23.136;2023-02-14T06:32:51;99451.25;;;-1.61;100.00
46722;BME280;32455;43.430;23.136;2023-02-14T06:35:36;99443.81;;;-1.67;100.00
46722;BME280;32455;43.430;23.136;2023-02-14T06:38:21;99443.41;;;-1.38;100.00
46722;BME280;32455;43.430;23.136;2023-02-14T06:41:07;99453.03;;;-1.26;100.00
46722;BME280;32455;43.430;23.136;2023-02-14T06:43:53;99460.81;;;-1.24;100.00
46722;BME280;32455;43.430;23.136;2023-02-14T06:46:38;99465.63;;;-1.18;100.00
46722;BME280;32455;43.430;23.136;2023-02-14T06:49:23;99463.16;;;-0.97;100.00
46722;BME280;32455;43.430;23.136;2023-02-14T06:52:09;99476.16;;;-0.72;100.00
46722;BME280;32455;43.430;23.136;2023-02-14T06:54:54;99467.16;;;-0.47;100.00
46722;BME280;32455;43.430;23.136;2023-02-14T06:57:40;99476.25;;;-0.40;100.00
46722;BME280;32455;43.430;23.136;2023-02-14T07:00:25;99469.97;;;-0.05;100.00
46722;BME280;32455;43.430;23.136;2023-02-14T07:03:09;99471.94;;;0.25;100.00
46722;BME280;32455;43.430;23.136;2023-02-14T07:05:56;99469.63;;;0.85;100.00
46722;BME280;32455;43.430;23.136;2023-02-14T07:08:41;99475.31;;;1.53;99.59
46722;BME280;32455;43.430;23.136;2023-02-14T07:11:26;99467.88;;;1.87;97.52
46722;BME280;32455;43.430;23.136;2023-02-14T07:14:12;99468.38;;;2.02;98.67
46722;BME280;32455;43.430;23.136;2023-02-14T07:16:57;99474.25;;;2.15;98.39
46722;BME280;32455;43.430;23.136;2023-02-14T07:19:43;99465.34;;;2.45;97.45
46722;BME280;32455;43.430;23.136;2023-02-14T07:22:27;99470.19;;;2.40;97.37
46722;BME280;32455;43.430;23.136;2023-02-14T07:25:13;99480.16;;;2.67;95.68
46722;BME280;32455;43.430;23.136;2023-02-14T07:27:58;99480.84;;;2.79;94.78
46722;BME280;32455;43.430;23.136;2023-02-14T07:30:43;99470.34;;;2.87;94.88
46722;BME280;32455;43.430;23.136;2023-02-14T07:33:28;99481.38;;;3.01;93.59
46722;BME280;32455;43.430;23.136;2023-02-14T07:36:13;99480.94;;;3.06;94.72
46722;BME280;32455;43.430;23.136;2023-02-14T07:38:58;99491.84;;;3.03;93.21
46722;BME280;32455;43.430;23.136;2023-02-14T07:41:43;99493.22;;;3.17;94.19
46722;BME280;32455;43.430;23.136;2023-02-14T07:44:28;99486.38;;;3.14;93.90
46722;BME280;32455;43.430;23.136;2023-02-14T07:47:14;99487.31;;;3.33;94.53
46722;BME280;32455;43.430;23.136;2023-02-14T07:49:58;99498.34;;;3.38;93.87
46722;BME280;32455;43.430;23.136;2023-02-14T07:52:47;99509.53;;;3.32;93.51
46722;BME280;32455;43.430;23.136;2023-02-14T07:55:31;99508.66;;;3.50;93.99
46722;BME280;32455;43.430;23.136;2023-02-14T07:58:16;99518.41;;;3.69;92.95
46722;BME280;32455;43.430;23.136;2023-02-14T08:01:01;99506.03;;;3.78;93.23
46722;BME280;32455;43.430;23.136;2023-02-14T08:03:47;99496.69;;;3.74;94.16
46722;BME280;32455;43.430;23.136;2023-02-14T08:06:36;99500.84;;;3.76;94.69
46722;BME280;32455;43.430;23.136;2023-02-14T08:09:22;99495.53;;;3.86;95.02
46722;BME280;32455;43.430;23.136;2023-02-14T08:12:11;99503.16;;;3.99;95.31
46722;BME280;32455;43.430;23.136;2023-02-14T08:15:15;99495.72;;;4.03;95.93
46722;BME280;32455;43.430;23.136;2023-02-14T08:18:19;99507.78;;;4.24;94.63
46722;BME280;32455;43.430;23.136;2023-02-14T08:21:07;99500.56;;;4.35;93.28
46722;BME280;32455;43.430;23.136;2023-02-14T08:23:53;99500.81;;;4.41;93.41
46722;BME280;32455;43.430;23.136;2023-02-14T08:26:38;99510.38;;;4.52;93.93
46722;BME280;32455;43.430;23.136;2023-02-14T08:29:23;99517.47;;;4.61;93.72
46722;BME280;32455;43.430;23.136;2023-02-14T08:32:08;99519.66;;;4.66;90.81
46722;BME280;32455;43.430;23.136;2023-02-14T08:34:53;99514.78;;;4.79;92.77
46722;BME280;32455;43.430;23.136;2023-02-14T08:37:39;99512.81;;;4.81;91.14
46722;BME280;32455;43.430;23.136;2023-02-14T08:40:24;99508.25;;;4.91;89.59
46722;BME280;32455;43.430;23.136;2023-02-14T08:43:09;99513.44;;;4.93;89.42
46722;BME280;32455;43.430;23.136;2023-02-14T08:45:54;99507.19;;;5.02;89.75
46722;BME280;32455;43.430;23.136;2023-02-14T08:48:39;99512.19;;;5.23;89.15
46722;BME280;32455;43.430;23.136;2023-02-14T08:51:24;99518.56;;;5.12;88.94
46722;BME280;32455;43.430;23.136;2023-02-14T08:54:09;99513.53;;;5.09;87.83
46722;BME280;32455;43.430;23.136;2023-02-14T08:56:55;99507.19;;;5.02;87.70
46722;BME280;32455;43.430;23.136;2023-02-14T08:59:40;99516.03;;;5.28;86.68
46722;BME280;32455;43.430;23.136;2023-02-14T09:02:26;99514.41;;;5.10;85.92
46722;BME280;32455;43.430;23.136;2023-02-14T09:05:11;99513.53;;;5.09;86.71
46722;BME280;32455;43.430;23.136;2023-02-14T09:07:56;99504.13;;;5.41;87.65
46722;BME280;32455;43.430;23.136;2023-02-14T09:10:44;99516.22;;;5.27;87.17
46722;BME280;32455;43.430;23.136;2023-02-14T09:13:29;99516.94;;;5.37;86.64
46722;BME280;32455;43.430;23.136;2023-02-14T09:16:16;99502.50;;;5.48;87.56
46722;BME280;32455;43.430;23.136;2023-02-14T09:19:01;99498.69;;;5.50;87.47
46722;BME280;32455;43.430;23.136;2023-02-14T09:21:46;99503.53;;;5.55;85.51
46722;BME280;32455;43.430;23.136;2023-02-14T09:24:32;99519.06;;;5.60;86.28
46722;BME280;32455;43.430;23.136;2023-02-14T09:27:17;99520.34;;;5.82;86.71
46722;BME280;32455;43.430;23.136;2023-02-14T09:30:03;99507.28;;;5.96;84.78
46722;BME280;32455;43.430;23.136;2023-02-14T09:32:50;99503.69;;;5.80;85.47
46722;BME280;32455;43.430;23.136;2023-02-14T09:35:36;99520.00;;;5.50;84.52
46722;BME280;32455;43.430;23.136;2023-02-14T09:38:32;99510.72;;;5.55;84.93
46722;BME280;32455;43.430;23.136;2023-02-14T09:44:29;99512.78;;;5.43;84.95
46722;BME280;32455;43.430;23.136;2023-02-14T09:50:30;99506.75;;;4.89;85.96
46722;BME280;32455;43.430;23.136;2023-02-14T09:59:00;99500.63;;;5.14;88.51
46722;BME280;32455;43.430;23.136;2023-02-14T10:02:08;99506.75;;;4.89;86.70
46722;BME280;32455;43.430;23.136;2023-02-14T10:05:14;99511.06;;;4.90;87.60
46722;BME280;32455;43.430;23.136;2023-02-14T10:08:11;99510.75;;;5.11;86.74
46722;BME280;32455;43.430;23.136;2023-02-14T10:11:07;99502.47;;;4.78;86.76
46722;BME280;32455;43.430;23.136;2023-02-14T10:16:42;99496.66;;;5.18;85.73
46722;BME280;32455;43.430;23.136;2023-02-14T10:19:31;99501.03;;;5.01;87.58
46722;BME280;32455;43.430;23.136;2023-02-14T10:22:18;99499.56;;;5.07;86.31
46722;BME280;32455;43.430;23.136;2023-02-14T10:25:16;99509.56;;;5.57;87.25
46722;BME280;32455;43.430;23.136;2023-02-14T10:28:04;99500.50;;;5.76;80.74
46722;BME280;32455;43.430;23.136;2023-02-14T10:33:55;99526.94;;;5.61;75.38
46722;BME280;32455;43.430;23.136;2023-02-14T10:45:41;99495.06;;;6.28;69.10
46722;BME280;32455;43.430;23.136;2023-02-14T10:48:40;99483.63;;;6.52;71.12
46722;BME280;32455;43.430;23.136;2023-02-14T10:51:33;99490.22;;;6.32;67.84
46722;BME280;32455;43.430;23.136;2023-02-14T10:54:25;99499.91;;;6.33;69.26
46722;BME280;32455;43.430;23.136;2023-02-14T10:57:13;99487.38;;;6.25;69.26
46722;BME280;32455;43.430;23.136;2023-02-14T11:00:00;99492.34;;;6.12;68.17
46722;BME280;32455;43.430;23.136;2023-02-14T11:02:46;99477.25;;;5.94;69.16
46722;BME280;32455;43.430;23.136;2023-02-14T11:08:26;99490.53;;;5.86;70.75
46722;BME280;32455;43.430;23.136;2023-02-14T11:11:17;99479.94;;;5.34;69.65
46722;BME280;32455;43.430;23.136;2023-02-14T11:14:18;99470.16;;;5.43;70.15
46722;BME280;32455;43.430;23.136;2023-02-14T11:20:25;99462.75;;;5.28;69.79
46722;BME280;32455;43.430;23.136;2023-02-14T11:23:19;99460.44;;;5.34;69.04
46722;BME280;32455;43.430;23.136;2023-02-14T11:26:07;99453.28;;;5.34;70.35
46722;BME280;32455;43.430;23.136;2023-02-14T11:31:41;99467.44;;;5.35;68.70
46722;BME280;32455;43.430;23.136;2023-02-14T11:34:32;99454.22;;;5.25;69.90
46722;BME280;32455;43.430;23.136;2023-02-14T11:37:23;99451.31;;;5.36;70.25
46722;BME280;32455;43.430;23.136;2023-02-14T11:40:22;99446.53;;;5.22;70.38
46722;BME280;32455;43.430;23.136;2023-02-14T11:46:03;99448.31;;;5.13;69.58
46722;BME280;32455;43.430;23.136;2023-02-14T11:48:58;99429.28;;;5.08;70.42
46722;BME280;32455;43.430;23.136;2023-02-14T11:51:44;99433.69;;;5.17;69.41
46722;BME280;32455;43.430;23.136;2023-02-14T11:54:36;99430.53;;;5.22;69.35
46722;BME280;32455;43.430;23.136;2023-02-14T12:00:15;99423.34;;;5.14;71.02
46722;BME280;32455;43.430;23.136;2023-02-14T12:03:02;99421.66;;;5.13;72.02
46722;BME280;32455;43.430;23.136;2023-02-14T12:05:48;99420.75;;;5.22;70.62
46722;BME280;32455;43.430;23.136;2023-02-14T12:08:36;99416.56;;;5.20;70.63
46722;BME280;32455;43.430;23.136;2023-02-14T12:11:23;99421.56;;;5.23;70.96
46722;BME280;32455;43.430;23.136;2023-02-14T12:14:19;99426.53;;;5.18;69.47
46722;BME280;32455;43.430;23.136;2023-02-14T12:20:13;99410.53;;;5.18;71.14
46722;BME280;32455;43.430;23.136;2023-02-14T12:26:05;99409.03;;;5.15;72.31
46722;BME280;32455;43.430;23.136;2023-02-14T12:29:19;99405.78;;;5.03;72.46
46722;BME280;32455;43.430;23.136;2023-02-14T12:32:09;99402.03;;;5.14;71.99
46722;BME280;32455;43.430;23.136;2023-02-14T12:35:12;99408.47;;;5.03;72.14
46722;BME280;32455;43.430;23.136;2023-02-14T12:38:10;99401.59;;;5.01;73.38
46722;BME280;32455;43.430;23.136;2023-02-14T12:43:50;99395.84;;;5.14;74.37
46722;BME280;32455;43.430;23.136;2023-02-14T12:46:47;99405.97;;;5.02;74.31
46722;BME280;32455;43.430;23.136;2023-02-14T12:49:42;99397.19;;;5.10;75.15
46722;BME280;32455;43.430;23.136;2023-02-14T12:52:40;99402.22;;;5.21;74.96
46722;BME280;32455;43.430;23.136;2023-02-14T13:15:51;99385.63;;;5.01;74.62
46722;BME280;32455;43.430;23.136;2023-02-14T13:18:48;99394.41;;;4.93;74.99
46722;BME280;32455;43.430;23.136;2023-02-14T13:21:34;99388.41;;;4.91;74.93
46722;BME280;32455;43.430;23.136;2023-02-14T13:24:24;99386.25;;;4.95;75.75
46722;BME280;32455;43.430;23.136;2023-02-14T13:27:20;99378.22;;;4.87;75.22
46722;BME280;32455;43.430;23.136;2023-02-14T13:30:18;99382.94;;;4.93;74.54
46722;BME280;32455;43.430;23.136;2023-02-14T13:33:53;99393.47;;;5.02;75.24
46722;BME280;32455;43.430;23.136;2023-02-14T13:36:13;99393.94;;;4.98;75.59
46722;BME280;32455;43.430;23.136;2023-02-14T13:38:58;99399.75;;;4.93;75.97
46722;BME280;32455;43.430;23.136;2023-02-14T13:41:44;99396.03;;;4.86;75.06
46722;BME280;32455;43.430;23.136;2023-02-14T13:47:23;99394.72;;;4.90;75.24
46722;BME280;32455;43.430;23.136;2023-02-14T13:50:16;99396.56;;;4.90;75.86
46722;BME280;32455;43.430;23.136;2023-02-14T13:53:08;99390.59;;;4.96;76.05
46722;BME280;32455;43.430;23.136;2023-02-14T13:55:56;99388.91;;;4.95;76.32
46722;BME280;32455;43.430;23.136;2023-02-14T13:58:54;99391.94;;;5.00;75.20
46722;BME280;32455;43.430;23.136;2023-02-14T14:01:44;99389.91;;;4.94;76.29
46722;BME280;32455;43.430;23.136;2023-02-14T14:04:34;99392.00;;;5.08;75.06
46722;BME280;32455;43.430;23.136;2023-02-14T14:07:21;99377.75;;;4.91;76.18
46722;BME280;32455;43.430;23.136;2023-02-14T14:10:10;99383.25;;;4.90;75.33
46722;BME280;32455;43.430;23.136;2023-02-14T14:12:56;99386.00;;;5.06;75.74
46722;BME280;32455;43.430;23.136;2023-02-14T14:16:08;99386.25;;;4.95;75.93
46722;BME280;32455;43.430;23.136;2023-02-14T14:18:46;99386.63;;;5.00;75.87
46722;BME280;32455;43.430;23.136;2023-02-14T14:21:38;99381.88;;;4.86;75.81
46722;BME280;32455;43.430;23.136;2023-02-14T14:24:25;99386.50;;;4.84;77.06
46722;BME280;32455;43.430;23.136;2023-02-14T14:30:06;99380.88;;;4.87;77.00
46722;BME280;32455;43.430;23.136;2023-02-14T14:36:03;99366.94;;;4.67;77.80
46722;BME280;32455;43.430;23.136;2023-02-14T14:38:50;99363.75;;;4.63;78.16
46722;BME280;32455;43.430;23.136;2023-02-14T14:41:35;99372.56;;;4.64;78.13
46722;BME280;32455;43.430;23.136;2023-02-14T14:44:20;99361.56;;;4.59;78.72
46722;BME280;32455;43.430;23.136;2023-02-14T14:47:05;99367.56;;;4.61;78.27
46722;BME280;32455;43.430;23.136;2023-02-14T14:49:51;99369.44;;;4.68;79.21
46722;BME280;32455;43.430;23.136;2023-02-14T14:52:45;99368.91;;;4.65;79.92
46722;BME280;32455;43.430;23.136;2023-02-14T14:55:32;99367.66;;;4.51;79.49
46722;BME280;32455;43.430;23.136;2023-02-14T14:58:30;99364.47;;;4.47;79.69
46722;BME280;32455;43.430;23.136;2023-02-14T15:01:29;99357.94;;;4.42;80.59
46722;BME280;32455;43.430;23.136;2023-02-14T15:10:26;99373.91;;;4.42;78.93
46722;BME280;32455;43.430;23.136;2023-02-14T15:13:12;99372.06;;;4.42;80.50
46722;BME280;32455;43.430;23.136;2023-02-14T15:25:35;99380.03;;;4.60;78.67
46722;BME280;32455;43.430;23.136;2023-02-14T15:31:11;99374.38;;;4.37;81.24
46722;BME280;32455;43.430;23.136;2023-02-14T15:33:57;99373.28;;;4.30;81.04
46722;BME280;32455;43.430;23.136;2023-02-14T15:36:43;99366.16;;;4.31;81.57
46722;BME280;32455;43.430;23.136;2023-02-14T15:39:36;99366.78;;;4.24;81.56
46722;BME280;32455;43.430;23.136;2023-02-14T15:42:28;99368.50;;;4.34;81.09
46722;BME280;32455;43.430;23.136;2023-02-14T15:45:20;99373.59;;;4.27;80.91
46722;BME280;32455;43.430;23.136;2023-02-14T15:48:16;99368.66;;;4.14;81.47
46722;BME280;32455;43.430;23.136;2023-02-14T15:51:02;99365.16;;;4.14;81.93
46722;BME280;32455;43.430;23.136;2023-02-14T15:53:54;99374.31;;;4.11;81.00
46722;BME280;32455;43.430;23.136;2023-02-14T15:56:48;99371.31;;;4.14;81.73
46722;BME280;32455;43.430;23.136;2023-02-14T15:59:34;99367.16;;;4.12;83.00
46722;BME280;32455;43.430;23.136;2023-02-14T16:02:32;99375.19;;;4.02;80.47
46722;BME280;32455;43.430;23.136;2023-02-14T16:05:22;99381.13;;;3.96;82.23
46722;BME280;32455;43.430;23.136;2023-02-14T16:11:26;99380.78;;;3.81;82.10
46722;BME280;32455;43.430;23.136;2023-02-14T16:14:31;99382.84;;;3.87;80.43
46722;BME280;32455;43.430;23.136;2023-02-14T16:17:30;99389.00;;;3.88;79.95
46722;BME280;32455;43.430;23.136;2023-02-14T16:20:29;99393.41;;;3.79;81.23
46722;BME280;32455;43.430;23.136;2023-02-14T16:23:23;99394.38;;;3.78;80.11
46722;BME280;32455;43.430;23.136;2023-02-14T16:26:09;99395.22;;;3.79;80.41
46722;BME280;32455;43.430;23.136;2023-02-14T16:28:54;99400.25;;;3.82;81.18
46722;BME280;32455;43.430;23.136;2023-02-14T16:31:55;99396.88;;;3.80;79.28
46722;BME280;32455;43.430;23.136;2023-02-14T16:34:41;99396.31;;;3.86;80.38
46722;BME280;32455;43.430;23.136;2023-02-14T16:37:31;99395.69;;;3.92;79.68
46722;BME280;32455;43.430;23.136;2023-02-14T16:40:16;99406.63;;;3.89;79.95
46722;BME280;32455;43.430;23.136;2023-02-14T16:43:03;99410.44;;;3.86;80.52
46722;BME280;32455;43.430;23.136;2023-02-14T16:45:48;99405.72;;;3.98;79.34
46722;BME280;32455;43.430;23.136;2023-02-14T16:48:33;99405.78;;;3.88;80.88
46722;BME280;32455;43.430;23.136;2023-02-14T16:51:19;99403.75;;;3.82;81.96
46722;BME280;32455;43.430;23.136;2023-02-14T16:54:06;99400.41;;;3.98;80.43
46722;BME280;32455;43.430;23.136;2023-02-14T16:59:37;99407.31;;;3.91;81.17
46722;BME280;32455;43.430;23.136;2023-02-14T17:02:23;99413.63;;;3.90;79.36
46722;BME280;32455;43.430;23.136;2023-02-14T17:05:11;99417.88;;;3.83;81.30
46722;BME280;32455;43.430;23.136;2023-02-14T17:07:57;99416.81;;;3.93;78.67
46722;BME280;32455;43.430;23.136;2023-02-14T17:10:43;99421.75;;;3.88;79.46
46722;BME280;32455;43.430;23.136;2023-02-14T17:13:30;99420.06;;;3.87;79.46
46722;BME280;32455;43.430;23.136;2023-02-14T17:16:17;99428.94;;;3.78;79.02